createdAt,value
2022-09-15T00:00:19.383Z,50.49
2022-09-15T00:02:46.412Z,50.85
2022-09-15T00:05:13.398Z,50.32
2022-09-15T00:07:39.936Z,50.35
2022-09-15T00:10:07.403Z,50.63
2022-09-15T00:12:34.125Z,50.71
2022-09-15T00:15:00.729Z,50.32
2022-09-15T00:17:28.398Z,50.65
2022-09-15T00:19:54.929Z,50.16
2022-09-15T00:22:21.476Z,50.18
2022-09-15T00:24:49.302Z,50.66
2022-09-15T00:27:17.093Z,50.42
2022-09-15T00:29:43.616Z,50.45
2022-09-15T00:32:10.572Z,50.05
2022-09-15T00:34:37.116Z,50.13
2022-09-15T00:37:03.773Z,50.34
2022-09-15T00:39:30.282Z,50.68
2022-09-15T00:41:56.862Z,50.33
2022-09-15T00:44:23.287Z,50.39
2022-09-15T00:47:15.194Z,50.40
2022-09-15T00:49:40.875Z,49.96
2022-09-15T00:52:12.235Z,50.46
2022-09-15T00:55:37.417Z,50.08
2022-09-15T00:58:08.238Z,50.15
2022-09-15T01:00:35.450Z,50.48
2022-09-15T01:03:03.194Z,49.96
2022-09-15T01:05:34.303Z,50.08
2022-09-15T01:08:36.517Z,49.59
2022-09-15T01:11:03.099Z,49.54
2022-09-15T01:13:29.947Z,49.76
2022-09-15T01:16:05.624Z,49.80
2022-09-15T01:18:47.035Z,49.46
2022-09-15T01:21:19.227Z,49.51
2022-09-15T01:24:00.860Z,49.45
2022-09-15T01:26:47.664Z,49.32
2022-09-15T01:29:35.263Z,48.96
2022-09-15T01:32:29.247Z,49.29
2022-09-15T01:35:05.415Z,49.00
2022-09-15T01:37:39.959Z,48.80
2022-09-15T01:40:08.991Z,48.87
2022-09-15T01:42:37.623Z,49.06
2022-09-15T01:45:11.495Z,48.65
2022-09-15T01:47:39.916Z,49.02
2022-09-15T01:50:11.678Z,49.09
2022-09-15T01:52:43.329Z,48.70
2022-09-15T01:55:18.070Z,48.62
2022-09-15T01:57:45.503Z,48.49
2022-09-15T02:00:12.903Z,48.90
2022-09-15T02:02:44.070Z,49.02
2022-09-15T02:05:20.744Z,48.46
2022-09-15T02:08:16.046Z,48.72
2022-09-15T02:10:58.770Z,48.96
2022-09-15T02:13:48.700Z,48.74
2022-09-15T02:16:24.108Z,48.46
2022-09-15T02:18:59.707Z,48.65
2022-09-15T02:21:37.285Z,48.70
2022-09-15T02:24:14.228Z,48.47
2022-09-15T02:26:42.914Z,48.42
2022-09-15T02:29:14.043Z,48.30
2022-09-15T02:31:42.671Z,48.56
2022-09-15T02:34:18.029Z,48.19
2022-09-15T02:36:45.493Z,48.36
2022-09-15T02:39:17.230Z,48.28
2022-09-15T02:41:43.809Z,48.36
2022-09-15T02:44:10.396Z,48.28
2022-09-15T02:46:37.098Z,48.72
2022-09-15T02:49:03.664Z,48.64
2022-09-15T02:51:31.060Z,48.33
2022-09-15T02:53:57.669Z,48.20
2022-09-15T02:56:24.150Z,48.10
2022-09-15T02:58:50.716Z,48.52
2022-09-15T03:01:17.547Z,48.46
2022-09-15T03:03:45.075Z,48.22
2022-09-15T03:06:19.822Z,48.07
2022-09-15T03:08:55.765Z,48.19
2022-09-15T03:11:24.877Z,48.32
2022-09-15T03:13:57.378Z,48.24
2022-09-15T03:16:25.297Z,48.70
2022-09-15T03:18:53.588Z,48.19
2022-09-15T03:21:20.294Z,48.08
2022-09-15T03:23:46.829Z,48.57
2022-09-15T03:26:13.726Z,48.02
2022-09-15T03:28:40.494Z,48.31
2022-09-15T03:31:08.919Z,47.92
2022-09-15T03:33:36.509Z,48.40
2022-09-15T03:36:03.795Z,48.40
2022-09-15T03:38:30.480Z,48.00
2022-09-15T03:41:01.488Z,48.36
2022-09-15T03:43:29.364Z,47.98
2022-09-15T03:45:56.603Z,47.97
2022-09-15T03:48:24.584Z,48.00
2022-09-15T03:50:52.012Z,48.17
2022-09-15T03:53:20.138Z,48.50
2022-09-15T03:55:47.760Z,47.92
2022-09-15T03:58:14.975Z,48.58
2022-09-15T04:00:41.549Z,48.21
2022-09-15T04:03:08.697Z,47.95
2022-09-15T04:05:36.554Z,48.26
2022-09-15T04:08:03.147Z,48.32
2022-09-15T04:10:29.652Z,47.82
2022-09-15T04:12:56.228Z,47.93
2022-09-15T04:15:22.874Z,48.21
2022-09-15T04:17:49.516Z,47.95
2022-09-15T04:20:17.240Z,48.25
2022-09-15T04:22:44.827Z,48.15
2022-09-15T04:25:11.603Z,47.83
2022-09-15T04:27:38.927Z,47.98
2022-09-15T04:30:07.782Z,48.30
2022-09-15T04:32:35.747Z,47.91
2022-09-15T04:35:03.007Z,48.23
2022-09-15T04:37:29.818Z,48.10
2022-09-15T04:39:56.799Z,47.92
2022-09-15T04:42:23.998Z,47.74
2022-09-15T04:44:50.992Z,48.02
2022-09-15T04:47:17.951Z,48.15
2022-09-15T04:49:44.500Z,48.09
2022-09-15T04:52:11.034Z,47.33
2022-09-15T04:54:37.560Z,47.64
2022-09-15T04:57:04.303Z,47.46
2022-09-15T04:59:30.878Z,47.07
2022-09-15T05:01:57.518Z,47.24
2022-09-15T05:04:24.103Z,47.11
2022-09-15T05:06:50.639Z,47.37
2022-09-15T05:09:17.168Z,47.26
2022-09-15T05:11:43.690Z,46.91
2022-09-15T05:14:11.017Z,47.29
2022-09-15T05:16:37.913Z,47.04
2022-09-15T05:19:04.817Z,47.38
2022-09-15T05:21:31.826Z,47.20
2022-09-15T05:23:58.355Z,47.02
2022-09-15T05:26:28.170Z,46.82
2022-09-15T05:28:56.151Z,47.33
2022-09-15T05:31:28.727Z,47.01
2022-09-15T05:33:55.389Z,47.21
2022-09-15T05:36:25.319Z,46.97
2022-09-15T05:38:58.756Z,47.20
2022-09-15T05:41:27.157Z,46.99
2022-09-15T05:43:55.415Z,46.88
2022-09-15T05:46:22.565Z,47.14
2022-09-15T05:48:49.219Z,47.41
2022-09-15T05:51:15.759Z,47.01
2022-09-15T05:53:42.487Z,47.74
2022-09-15T05:56:14.020Z,44.62
2022-09-15T05:58:41.887Z,43.65
2022-09-15T06:01:13.468Z,43.87
2022-09-15T06:03:40.714Z,43.93
2022-09-15T06:06:07.740Z,44.29
2022-09-15T06:08:43.768Z,45.00
2022-09-15T06:11:16.798Z,45.15
2022-09-15T06:13:44.436Z,46.07
2022-09-15T06:16:13.899Z,46.49
2022-09-15T06:18:41.646Z,46.87
2022-09-15T06:21:13.580Z,47.41
2022-09-15T06:23:40.759Z,47.45
2022-09-15T06:26:12.898Z,47.91
2022-09-15T06:28:42.140Z,48.34
2022-09-15T06:31:12.858Z,48.69
2022-09-15T06:33:44.141Z,48.97
2022-09-15T06:36:12.073Z,48.85
2022-09-15T06:38:39.543Z,49.44
2022-09-15T06:41:06.787Z,49.71
2022-09-15T06:43:34.335Z,49.51
2022-09-15T06:46:04.531Z,49.85
2022-09-15T06:48:32.207Z,49.81
2022-09-15T06:50:59.207Z,49.60
2022-09-15T06:53:27.759Z,49.35
2022-09-15T06:55:54.840Z,49.82
2022-09-15T06:58:21.471Z,49.46
2022-09-15T07:00:47.953Z,50.13
2022-09-15T07:03:14.585Z,49.91
2022-09-15T07:05:41.270Z,50.00
2022-09-15T07:08:07.834Z,49.65
2022-09-15T07:10:34.517Z,49.72
2022-09-15T07:13:01.334Z,49.15
2022-09-15T07:15:27.860Z,49.18
2022-09-15T07:17:54.661Z,48.96
2022-09-15T07:20:21.598Z,49.16
2022-09-15T07:22:48.148Z,49.34
2022-09-15T07:25:14.676Z,48.98
2022-09-15T07:27:41.201Z,49.01
2022-09-15T07:30:08.653Z,49.35
2022-09-15T07:32:35.401Z,49.58
2022-09-15T07:35:02.368Z,49.58
2022-09-15T08:38:45.715Z,49.07
2022-09-15T08:41:21.020Z,49.41
2022-09-15T08:44:08.107Z,49.60
2022-09-15T08:46:43.492Z,49.22
2022-09-15T08:49:35.423Z,49.27
2022-09-15T08:52:13.884Z,48.96
2022-09-15T08:54:40.384Z,49.40
2022-09-15T08:57:14.184Z,48.94
2022-09-15T08:59:40.731Z,49.26
2022-09-15T09:02:12.994Z,48.91
2022-09-15T09:04:53.757Z,48.92
2022-09-15T09:07:35.234Z,48.90
2022-09-15T09:10:10.798Z,48.88
2022-09-15T09:13:00.654Z,48.93
2022-09-15T09:15:33.496Z,49.33
2022-09-15T09:18:22.409Z,49.05
2022-09-15T09:21:22.198Z,49.11
2022-09-15T09:24:12.698Z,48.88
2022-09-15T09:26:39.923Z,49.10
2022-09-15T09:29:26.754Z,48.97
2022-09-15T09:31:55.817Z,49.19
2022-09-15T09:34:55.785Z,49.19
2022-09-15T09:37:22.778Z,48.90
2022-09-15T09:39:49.381Z,48.93
2022-09-15T09:42:18.481Z,48.94
2022-09-15T09:44:46.766Z,49.13
2022-09-15T09:47:13.340Z,48.77
2022-09-15T09:49:47.664Z,48.72
2022-09-15T09:52:32.131Z,49.09
2022-09-15T09:55:23.061Z,49.20
2022-09-15T09:57:50.146Z,49.40
2022-09-15T10:00:38.218Z,48.74
2022-09-15T10:03:15.722Z,48.89
2022-09-15T10:05:43.206Z,49.00
2022-09-15T10:08:20.534Z,49.26
2022-09-15T10:10:52.784Z,48.86
2022-09-15T10:13:20.055Z,49.07
2022-09-15T10:15:53.678Z,49.31
2022-09-15T10:18:38.775Z,49.02
2022-09-15T10:21:09.610Z,48.94
2022-09-15T10:23:36.791Z,49.21
2022-09-15T10:26:30.142Z,48.91
2022-09-15T10:29:17.617Z,48.63
2022-09-15T10:31:45.825Z,48.71
2022-09-15T10:34:32.146Z,49.02
2022-09-15T10:37:27.140Z,48.90
2022-09-15T10:40:00.059Z,48.71
2022-09-15T10:42:38.263Z,49.11
2022-09-15T10:45:14.878Z,49.15
2022-09-15T10:48:02.797Z,48.69
2022-09-15T10:50:36.006Z,48.67
2022-09-15T10:53:14.387Z,48.77
2022-09-15T10:55:55.654Z,49.05
2022-09-15T10:58:45.876Z,48.90
2022-09-15T11:01:28.295Z,48.85
2022-09-15T11:04:31.086Z,48.88
2022-09-15T11:07:00.502Z,48.80
2022-09-15T11:09:36.104Z,48.61
2022-09-15T11:12:11.307Z,48.53
2022-09-15T11:14:37.730Z,48.58
2022-09-15T11:17:19.730Z,48.86
2022-09-15T11:20:14.141Z,48.54
2022-09-15T11:23:39.879Z,48.62
2022-09-15T11:26:17.477Z,48.95
2022-09-15T11:28:59.557Z,48.79
2022-09-15T11:31:42.460Z,49.01
2022-09-15T11:34:32.041Z,48.39
2022-09-15T11:37:21.299Z,48.94
2022-09-15T11:40:04.722Z,48.97
2022-09-15T11:43:03.839Z,48.56
2022-09-15T11:45:38.331Z,49.05
2022-09-15T11:48:32.149Z,48.61
2022-09-15T11:51:01.738Z,48.70
2022-09-15T11:53:38.235Z,48.31
2022-09-15T11:56:21.822Z,48.70
2022-09-15T11:59:06.858Z,49.05
2022-09-15T12:01:51.758Z,48.64
2022-09-15T12:04:32.339Z,48.54
2022-09-15T12:07:20.981Z,48.52
2022-09-15T12:09:48.235Z,48.89
2022-09-15T12:12:18.525Z,48.84
2022-09-15T12:14:48.120Z,48.57
2022-09-15T12:17:48.289Z,48.80
2022-09-15T12:20:26.736Z,48.79
2022-09-15T12:23:16.617Z,48.56
2022-09-15T12:26:00.110Z,48.37
2022-09-15T12:28:46.781Z,48.72
2022-09-15T12:31:38.503Z,48.70
2022-09-15T12:34:24.738Z,48.39
2022-09-15T12:37:06.358Z,48.69
2022-09-15T12:39:51.732Z,48.86
2022-09-15T12:42:21.336Z,48.85
2022-09-15T12:44:50.410Z,48.26
2022-09-15T12:47:39.217Z,48.69
2022-09-15T12:50:24.593Z,48.45
2022-09-15T12:52:57.185Z,48.62
2022-09-15T12:55:25.184Z,48.80
2022-09-15T12:57:55.151Z,48.57
2022-09-15T13:00:28.963Z,48.85
2022-09-15T13:02:56.438Z,48.85
2022-09-15T13:05:41.465Z,48.49
2022-09-15T13:08:15.231Z,48.32
2022-09-15T13:10:59.253Z,48.83
2022-09-15T13:13:50.293Z,48.51
2022-09-15T13:16:31.114Z,48.64
2022-09-15T13:19:40.982Z,48.40
2022-09-15T13:22:30.069Z,48.31
2022-09-15T13:25:14.555Z,48.71
2022-09-15T13:27:43.005Z,48.24
2022-09-15T13:30:31.417Z,48.29
2022-09-15T13:33:12.958Z,48.83
2022-09-15T13:35:51.883Z,48.37
2022-09-15T13:38:46.620Z,48.25
2022-09-15T13:41:40.029Z,48.35
2022-09-15T13:44:42.007Z,48.58
2022-09-15T13:47:26.912Z,48.64
2022-09-15T13:50:11.817Z,48.34
2022-09-15T13:52:50.523Z,48.23
2022-09-15T13:55:26.364Z,48.16
2022-09-15T14:00:54.253Z,48.39
2022-09-15T14:03:54.954Z,48.15
2022-09-15T14:06:25.895Z,48.53
2022-09-15T14:08:56.828Z,48.46
2022-09-15T14:11:32.465Z,48.19
2022-09-15T14:14:00.635Z,48.21
2022-09-15T14:16:27.841Z,48.35
2022-09-15T14:18:57.602Z,48.40
2022-09-15T14:21:27.021Z,47.99
2022-09-15T14:23:56.267Z,48.20
2022-09-15T14:26:27.671Z,48.14
2022-09-15T14:29:03.745Z,48.48
2022-09-15T14:31:34.215Z,48.14
2022-09-15T14:34:02.704Z,48.20
2022-09-15T14:36:33.601Z,48.55
2022-09-15T14:39:12.418Z,48.59
2022-09-15T14:41:40.180Z,48.03
2022-09-15T14:47:31.297Z,48.18
2022-09-15T15:11:28.058Z,48.41
2022-09-15T15:13:57.014Z,48.34
2022-09-15T15:16:29.118Z,47.97
2022-09-15T15:18:57.170Z,48.22
2022-09-15T15:21:40.662Z,48.01
2022-09-15T15:24:13.221Z,48.21
2022-09-15T15:26:42.246Z,48.31
2022-09-15T15:29:37.500Z,48.37
2022-09-15T15:32:05.885Z,48.16
2022-09-15T15:34:33.319Z,48.14
2022-09-15T15:37:04.494Z,48.22
2022-09-15T15:39:31.201Z,48.32
2022-09-15T15:42:04.288Z,48.39
2022-09-15T15:44:31.377Z,48.59
2022-09-15T15:47:24.973Z,48.56
2022-09-15T15:50:15.864Z,48.44
2022-09-15T15:52:43.850Z,48.44
2022-09-15T15:55:15.111Z,48.52
2022-09-15T15:57:41.772Z,48.39
2022-09-15T16:00:21.544Z,48.43
2022-09-15T16:02:48.662Z,48.55
2022-09-15T16:05:15.475Z,48.17
2022-09-15T16:07:43.790Z,48.39
2022-09-15T16:10:16.131Z,48.34
2022-09-15T16:12:42.648Z,48.08
2022-09-15T16:15:12.485Z,48.53
2022-09-15T16:17:45.894Z,48.26
2022-09-15T16:20:15.933Z,47.93
2022-09-15T16:22:43.212Z,48.18
2022-09-15T16:25:40.014Z,48.37
2022-09-15T17:11:20.101Z,48.08
2022-09-15T17:13:47.157Z,47.52
2022-09-15T17:16:15.365Z,47.62
2022-09-15T17:18:42.014Z,47.79
2022-09-15T17:21:12.266Z,47.61
2022-09-15T17:23:41.291Z,47.43
2022-09-15T17:26:13.695Z,47.38
2022-09-15T17:28:41.142Z,47.73
2022-09-15T17:31:17.721Z,47.43
2022-09-15T17:33:45.123Z,47.52
2022-09-15T17:36:12.002Z,47.43
2022-09-15T17:38:40.908Z,47.52
2022-09-15T17:41:13.626Z,47.67
2022-09-15T17:43:40.131Z,47.76
2022-09-15T17:46:07.838Z,47.75
2022-09-15T17:48:34.775Z,47.27
2022-09-15T17:51:01.567Z,47.31
2022-09-15T17:53:28.166Z,47.13
2022-09-15T17:55:55.645Z,47.46
2022-09-15T17:58:24.904Z,46.98
2022-09-15T18:00:52.304Z,46.91
2022-09-15T18:03:29.184Z,46.69
2022-09-15T18:05:58.402Z,46.85
2022-09-15T18:08:26.044Z,47.27
2022-09-15T18:10:52.573Z,47.20
2022-09-15T18:13:22.754Z,46.75
2022-09-15T18:15:49.844Z,46.63
2022-09-15T18:18:21.383Z,46.78
2022-09-15T18:20:49.831Z,47.25
2022-09-15T18:23:24.087Z,47.08
2022-09-15T18:25:51.258Z,47.15
2022-09-15T18:28:19.130Z,46.79
2022-09-15T18:30:48.069Z,46.89
2022-09-15T18:33:17.352Z,46.78
2022-09-15T18:35:44.346Z,46.97
2022-09-15T18:38:11.966Z,47.04
2022-09-15T18:40:38.840Z,46.64
2022-09-15T18:43:05.682Z,46.76
2022-09-15T18:45:32.201Z,47.02
2022-09-15T18:47:58.707Z,46.74
2022-09-15T18:50:25.590Z,46.42
2022-09-15T18:52:52.317Z,46.29
2022-09-15T18:55:21.619Z,46.50
2022-09-15T18:57:48.479Z,46.78
2022-09-15T19:00:20.674Z,46.33
2022-09-15T19:02:47.702Z,46.57
2022-09-15T19:05:15.677Z,46.77
2022-09-15T19:07:43.562Z,46.29
2022-09-15T19:10:11.560Z,46.89
2022-09-15T19:12:39.174Z,47.04
2022-09-15T19:15:10.856Z,47.68
2022-09-15T19:17:39.408Z,47.72
2022-09-15T19:20:08.255Z,48.17
2022-09-15T19:22:35.433Z,48.29
2022-09-15T19:25:02.189Z,48.40
2022-09-15T19:27:29.071Z,48.67
2022-09-15T19:29:55.622Z,48.37
2022-09-15T19:32:22.331Z,48.07
2022-09-15T19:34:49.335Z,47.56
2022-09-15T19:37:19.176Z,47.60
2022-09-15T19:39:47.057Z,47.46
2022-09-15T19:44:47.846Z,46.88
2022-09-15T19:47:14.453Z,47.09
2022-09-15T19:49:41.127Z,47.03
2022-09-15T19:52:07.812Z,46.57
2022-09-15T19:54:34.620Z,46.47
2022-09-15T19:57:02.498Z,46.82
2022-09-15T19:59:31.678Z,46.53
2022-09-15T20:01:59.282Z,46.62
2022-09-15T20:04:26.624Z,46.94
2022-09-15T20:06:53.155Z,46.57
2022-09-15T20:09:19.670Z,46.70
2022-09-15T20:11:46.215Z,47.13
2022-09-15T20:14:12.735Z,46.96
2022-09-15T20:16:39.560Z,46.84
2022-09-15T20:19:06.195Z,47.12
2022-09-15T20:21:51.465Z,46.91
2022-09-15T20:24:19.940Z,46.86
2022-09-15T20:26:46.619Z,46.84
2022-09-15T20:29:13.319Z,47.36
2022-09-15T20:31:40.319Z,47.16
2022-09-15T20:34:06.849Z,47.26
2022-09-15T20:36:36.489Z,46.49
2022-09-15T20:39:05.732Z,46.95
2022-09-15T20:41:32.266Z,46.81
2022-09-15T20:43:59.589Z,46.48
2022-09-15T20:46:26.786Z,46.53
2022-09-15T20:48:53.474Z,46.46
2022-09-15T20:51:22.883Z,46.64
2022-09-15T20:53:51.691Z,46.06
2022-09-15T20:56:21.251Z,46.08
2022-09-15T20:58:48.024Z,46.24
2022-09-15T21:01:21.657Z,45.87
2022-09-15T21:03:48.464Z,46.33
2022-09-15T21:06:17.871Z,45.86
2022-09-15T21:08:44.715Z,46.08
2022-09-15T21:11:11.611Z,46.05
2022-09-15T21:13:40.425Z,40.21
2022-09-15T21:16:15.857Z,44.47
2022-09-15T21:18:43.697Z,45.40
2022-09-15T21:21:24.432Z,46.44
2022-09-15T21:23:56.322Z,46.60
2022-09-15T21:26:25.427Z,46.63
2022-09-15T21:28:53.094Z,46.26
2022-09-15T21:31:26.158Z,46.06
2022-09-15T21:33:53.959Z,46.43
2022-09-15T21:36:24.546Z,46.25
2022-09-15T21:38:53.390Z,46.69
2022-09-15T21:41:22.118Z,46.51
2022-09-15T21:43:50.011Z,46.18
2022-09-15T21:46:19.908Z,46.57
2022-09-15T21:48:48.037Z,46.30
2022-09-15T21:51:23.470Z,46.82
2022-09-15T21:53:52.580Z,46.44
2022-09-15T21:56:19.358Z,46.31
2022-09-15T21:58:46.155Z,46.44
2022-09-15T22:01:20.007Z,46.71
2022-09-15T22:03:51.823Z,46.80
2022-09-15T22:06:20.977Z,46.71
2022-09-15T22:08:48.210Z,46.78
2022-09-15T22:11:15.078Z,46.67
2022-09-15T22:13:44.607Z,46.80
2022-09-15T22:16:13.941Z,46.88
2022-09-15T22:18:41.622Z,46.87
2022-09-15T22:21:18.540Z,46.99
2022-09-15T22:23:47.116Z,47.23
2022-09-15T22:26:19.597Z,46.59
2022-09-15T22:28:46.518Z,46.62
2022-09-15T22:31:14.950Z,46.52
2022-09-15T22:33:42.453Z,46.54
2022-09-15T22:36:13.726Z,46.26
2022-09-15T22:38:40.537Z,46.56
2022-09-15T22:41:10.185Z,46.25
2022-09-15T22:43:36.822Z,45.99
2022-09-15T22:46:03.574Z,46.15
2022-09-15T22:48:30.160Z,45.97
2022-09-15T22:50:56.730Z,45.87
2022-09-15T22:53:23.533Z,45.88
2022-09-15T22:55:51.395Z,45.88
2022-09-15T22:58:18.075Z,45.91
2022-09-15T23:00:44.736Z,46.01
2022-09-15T23:03:11.685Z,45.90
2022-09-15T23:05:38.324Z,45.97
2022-09-15T23:08:04.965Z,45.62
2022-09-15T23:10:32.312Z,45.68
2022-09-15T23:12:59.583Z,45.73
2022-09-15T23:15:26.329Z,45.38
2022-09-15T23:17:52.878Z,45.66
2022-09-15T23:20:19.402Z,45.23
2022-09-15T23:22:45.902Z,45.18
2022-09-15T23:25:12.963Z,44.88
2022-09-15T23:27:39.564Z,44.95
2022-09-15T23:30:06.406Z,44.83
2022-09-15T23:32:32.911Z,45.04
2022-09-15T23:34:59.406Z,44.57
2022-09-15T23:37:26.000Z,44.46
2022-09-15T23:39:52.561Z,44.52
2022-09-15T23:42:19.220Z,44.51
2022-09-15T23:44:45.831Z,44.64
2022-09-15T23:47:12.353Z,44.57
2022-09-15T23:49:38.865Z,44.32
2022-09-15T23:52:05.388Z,44.33
2022-09-15T23:54:31.883Z,44.08
2022-09-15T23:56:58.455Z,44.18
2022-09-15T23:59:25.048Z,44.00
